Weather at Brage A Platform

Public forecast

Using degrees Celsius for public forecast. Weather courtesy of forecast.io.

Closest aviation weather report (METAR) to Brage A Platform

Closest report is Oseberg A Platform, 7.2 nm (13.3 km) WSW.

2024/07/17 12:50 (retrieved 18 minutes ago)

ENOA 171250Z 28013KT FEW010 13/09 Q1015 W///S3

Closest aviation forecast (TAF) to Brage A Platform

Closest forecast is Oseberg A Platform, 7.2 nm (13.3 km) WSW.

2024/07/17 12:36 (retrieved 32 minutes ago)

TAF ENOA 171100Z 1712/1812 24008KT 9999 FEW008 BKN025 TEMPO 1712/1724 BKN008 PROB40 1800/1809 0100 FG VV001 BECMG 1805/1807 18012KT BECMG 1810/1812 17022KT